Terminal Aerodrome Forecast
Issued by NWS

Home | Current Version | Previous Version | Text Only | Print | Product List | Glossary On
Versions: 1 2 3 4 5 6 7 8 9 10 11 12 13 14 15
136
FTUS46 KMTR 301120
TAFSNS
TAF
KSNS 301120Z 3012/0112 VRB04KT P6SM SKC
     FM301900 29010KT P6SM SKC
     FM302100 29012KT P6SM SKC
     FM010300 29008KT P6SM FEW015
     FM010800 30003KT P6SM SCT007=

USA.gov is the U.S. government's official web portal to all federal, state and local government web resources and services.